sensor_id;sensor_type;location;lat;lon;timestamp;temperature;humidity
45012;DHT22;63444;48.148;11.542;2023-06-10T00:00:56;20.30;92.20
45012;DHT22;63444;48.148;11.542;2023-06-10T00:03:21;20.30;92.20
45012;DHT22;63444;48.148;11.542;2023-06-10T00:05:49;20.30;92.20
45012;DHT22;63444;48.148;11.542;2023-06-10T00:08:15;20.30;92.20
45012;DHT22;63444;48.148;11.542;2023-06-10T00:10:45;20.30;92.20
45012;DHT22;63444;48.148;11.542;2023-06-10T00:13:10;20.30;92.30
45012;DHT22;63444;48.148;11.542;2023-06-10T00:15:39;20.20;92.20
45012;DHT22;63444;48.148;11.542;2023-06-10T00:18:04;20.20;92.20
45012;DHT22;63444;48.148;11.542;2023-06-10T00:20:31;20.20;92.30
45012;DHT22;63444;48.148;11.542;2023-06-10T00:22:58;20.20;92.30
45012;DHT22;63444;48.148;11.542;2023-06-10T00:25:24;20.10;92.20
45012;DHT22;63444;48.148;11.542;2023-06-10T00:27:51;20.10;92.20
45012;DHT22;63444;48.148;11.542;2023-06-10T00:30:16;20.10;92.30
45012;DHT22;63444;48.148;11.542;2023-06-10T00:32:42;20.00;92.40
45012;DHT22;63444;48.148;11.542;2023-06-10T00:35:08;20.00;92.40
45012;DHT22;63444;48.148;11.542;2023-06-10T00:37:34;19.90;92.50
45012;DHT22;63444;48.148;11.542;2023-06-10T00:40:03;20.00;92.60
45012;DHT22;63444;48.148;11.542;2023-06-10T00:42:29;19.90;92.60
45012;DHT22;63444;48.148;11.542;2023-06-10T00:44:55;19.80;92.70
45012;DHT22;63444;48.148;11.542;2023-06-10T00:47:21;19.90;92.70
45012;DHT22;63444;48.148;11.542;2023-06-10T00:49:47;19.90;92.80
45012;DHT22;63444;48.148;11.542;2023-06-10T00:52:14;19.80;92.90
45012;DHT22;63444;48.148;11.542;2023-06-10T00:54:41;19.80;93.10
45012;DHT22;63444;48.148;11.542;2023-06-10T00:57:10;19.70;93.20
45012;DHT22;63444;48.148;11.542;2023-06-10T00:59:38;19.60;93.30
45012;DHT22;63444;48.148;11.542;2023-06-10T01:02:05;19.60;93.50
45012;DHT22;63444;48.148;11.542;2023-06-10T01:04:30;19.50;93.60
45012;DHT22;63444;48.148;11.542;2023-06-10T01:10:10;19.40;93.90
45012;DHT22;63444;48.148;11.542;2023-06-10T01:12:59;19.40;94.00
45012;DHT22;63444;48.148;11.542;2023-06-10T01:15:31;19.40;94.10
45012;DHT22;63444;48.148;11.542;2023-06-10T01:18:02;19.40;94.30
45012;DHT22;63444;48.148;11.542;2023-06-10T01:20:29;19.40;94.30
45012;DHT22;63444;48.148;11.542;2023-06-10T01:22:58;19.40;94.50
45012;DHT22;63444;48.148;11.542;2023-06-10T01:25:24;19.30;94.60
45012;DHT22;63444;48.148;11.542;2023-06-10T01:30:29;19.20;95.00
45012;DHT22;63444;48.148;11.542;2023-06-10T01:32:59;19.20;95.10
45012;DHT22;63444;48.148;11.542;2023-06-10T01:35:28;19.20;95.30
45012;DHT22;63444;48.148;11.542;2023-06-10T01:37:57;19.00;95.30
45012;DHT22;63444;48.148;11.542;2023-06-10T01:40:24;19.10;95.50
45012;DHT22;63444;48.148;11.542;2023-06-10T01:42:51;19.10;95.60
45012;DHT22;63444;48.148;11.542;2023-06-10T01:45:17;19.10;95.70
45012;DHT22;63444;48.148;11.542;2023-06-10T01:47:43;19.10;95.80
45012;DHT22;63444;48.148;11.542;2023-06-10T01:50:09;19.00;95.80
45012;DHT22;63444;48.148;11.542;2023-06-10T01:52:35;19.00;96.00
45012;DHT22;63444;48.148;11.542;2023-06-10T01:55:00;18.90;96.10
45012;DHT22;63444;48.148;11.542;2023-06-10T01:57:26;18.90;96.30
45012;DHT22;63444;48.148;11.542;2023-06-10T01:59:54;19.10;96.50
45012;DHT22;63444;48.148;11.542;2023-06-10T02:02:22;18.80;96.40
45012;DHT22;63444;48.148;11.542;2023-06-10T02:04:54;18.90;96.50
45012;DHT22;63444;48.148;11.542;2023-06-10T02:07:20;18.80;96.60
45012;DHT22;63444;48.148;11.542;2023-06-10T02:09:46;18.80;96.70
45012;DHT22;63444;48.148;11.542;2023-06-10T02:12:11;18.80;97.00
45012;DHT22;63444;48.148;11.542;2023-06-10T02:14:37;18.60;97.10
45012;DHT22;63444;48.148;11.542;2023-06-10T02:17:03;18.60;97.60
45012;DHT22;63444;48.148;11.542;2023-06-10T02:19:29;18.60;97.40
45012;DHT22;63444;48.148;11.542;2023-06-10T02:21:56;18.50;97.50
45012;DHT22;63444;48.148;11.542;2023-06-10T02:24:21;18.60;97.60
45012;DHT22;63444;48.148;11.542;2023-06-10T02:26:47;18.60;97.70
45012;DHT22;63444;48.148;11.542;2023-06-10T02:29:13;18.60;98.20
45012;DHT22;63444;48.148;11.542;2023-06-10T02:31:39;18.60;97.90
45012;DHT22;63444;48.148;11.542;2023-06-10T02:34:05;18.60;98.00
45012;DHT22;63444;48.148;11.542;2023-06-10T02:36:30;18.60;98.00
45012;DHT22;63444;48.148;11.542;2023-06-10T02:38:56;18.60;98.20
45012;DHT22;63444;48.148;11.542;2023-06-10T02:41:22;18.50;98.20
45012;DHT22;63444;48.148;11.542;2023-06-10T02:43:48;18.50;98.40
45012;DHT22;63444;48.148;11.542;2023-06-10T02:46:14;18.50;98.50
45012;DHT22;63444;48.148;11.542;2023-06-10T02:48:43;18.50;98.70
45012;DHT22;63444;48.148;11.542;2023-06-10T02:51:11;18.40;98.70
45012;DHT22;63444;48.148;11.542;2023-06-10T02:53:37;18.30;98.90
45012;DHT22;63444;48.148;11.542;2023-06-10T02:56:03;18.30;99.10
45012;DHT22;63444;48.148;11.542;2023-06-10T02:58:29;18.30;99.60
45012;DHT22;63444;48.148;11.542;2023-06-10T03:00:54;18.20;99.40
45012;DHT22;63444;48.148;11.542;2023-06-10T03:03:20;18.30;99.50
45012;DHT22;63444;48.148;11.542;2023-06-10T03:05:48;18.40;99.60
45012;DHT22;63444;48.148;11.542;2023-06-10T03:08:13;18.40;99.70
45012;DHT22;63444;48.148;11.542;2023-06-10T03:10:39;18.20;99.70
45012;DHT22;63444;48.148;11.542;2023-06-10T03:13:05;18.20;99.80
45012;DHT22;63444;48.148;11.542;2023-06-10T03:15:30;18.30;99.90
45012;DHT22;63444;48.148;11.542;2023-06-10T03:17:59;18.20;99.90
45012;DHT22;63444;48.148;11.542;2023-06-10T03:20:25;18.30;99.90
45012;DHT22;63444;48.148;11.542;2023-06-10T03:22:53;18.20;99.90
45012;DHT22;63444;48.148;11.542;2023-06-10T03:25:18;18.20;99.90
45012;DHT22;63444;48.148;11.542;2023-06-10T03:27:46;18.20;99.90
45012;DHT22;63444;48.148;11.542;2023-06-10T03:30:13;18.20;99.90
45012;DHT22;63444;48.148;11.542;2023-06-10T03:32:39;18.20;99.90
45012;DHT22;63444;48.148;11.542;2023-06-10T03:35:06;18.10;99.90
45012;DHT22;63444;48.148;11.542;2023-06-10T03:37:32;18.10;99.90
45012;DHT22;63444;48.148;11.542;2023-06-10T03:39:58;18.10;99.90
45012;DHT22;63444;48.148;11.542;2023-06-10T03:42:23;18.10;99.90
45012;DHT22;63444;48.148;11.542;2023-06-10T03:44:49;18.00;99.90
45012;DHT22;63444;48.148;11.542;2023-06-10T03:47:15;18.00;99.90
45012;DHT22;63444;48.148;11.542;2023-06-10T03:49:41;18.00;99.90
45012;DHT22;63444;48.148;11.542;2023-06-10T03:52:07;18.20;99.90
45012;DHT22;63444;48.148;11.542;2023-06-10T03:54:32;18.00;99.90
45012;DHT22;63444;48.148;11.542;2023-06-10T03:57:00;18.20;99.90
45012;DHT22;63444;48.148;11.542;2023-06-10T03:59:26;18.10;99.90
45012;DHT22;63444;48.148;11.542;2023-06-10T04:01:52;18.00;99.90
45012;DHT22;63444;48.148;11.542;2023-06-10T04:04:17;18.00;99.90
45012;DHT22;63444;48.148;11.542;2023-06-10T04:06:43;18.00;99.90
45012;DHT22;63444;48.148;11.542;2023-06-10T04:09:10;18.00;99.90
45012;DHT22;63444;48.148;11.542;2023-06-10T04:11:36;18.00;99.90
45012;DHT22;63444;48.148;11.542;2023-06-10T04:14:02;17.90;99.90
45012;DHT22;63444;48.148;11.542;2023-06-10T04:16:28;17.90;99.90
45012;DHT22;63444;48.148;11.542;2023-06-10T04:18:54;18.00;99.90
45012;DHT22;63444;48.148;11.542;2023-06-10T04:21:20;17.90;99.90
45012;DHT22;63444;48.148;11.542;2023-06-10T04:23:47;18.00;99.90
45012;DHT22;63444;48.148;11.542;2023-06-10T04:26:12;18.00;99.90
45012;DHT22;63444;48.148;11.542;2023-06-10T04:28:38;17.90;99.90
45012;DHT22;63444;48.148;11.542;2023-06-10T04:31:04;17.90;99.90
45012;DHT22;63444;48.148;11.542;2023-06-10T04:33:30;18.10;99.90
45012;DHT22;63444;48.148;11.542;2023-06-10T04:35:56;17.90;99.90
45012;DHT22;63444;48.148;11.542;2023-06-10T04:38:21;18.00;99.90
45012;DHT22;63444;48.148;11.542;2023-06-10T04:40:47;17.90;99.90
45012;DHT22;63444;48.148;11.542;2023-06-10T04:43:13;18.00;99.90
45012;DHT22;63444;48.148;11.542;2023-06-10T04:45:39;18.00;99.90
45012;DHT22;63444;48.148;11.542;2023-06-10T04:48:05;18.00;99.90
45012;DHT22;63444;48.148;11.542;2023-06-10T04:50:30;17.90;99.90
45012;DHT22;63444;48.148;11.542;2023-06-10T04:52:58;17.90;99.90
45012;DHT22;63444;48.148;11.542;2023-06-10T04:55:24;18.00;99.90
45012;DHT22;63444;48.148;11.542;2023-06-10T04:57:50;18.00;99.90
45012;DHT22;63444;48.148;11.542;2023-06-10T05:00:16;18.00;99.90
45012;DHT22;63444;48.148;11.542;2023-06-10T05:02:42;18.00;99.90
45012;DHT22;63444;48.148;11.542;2023-06-10T05:05:08;18.30;99.90
45012;DHT22;63444;48.148;11.542;2023-06-10T05:07:34;18.00;99.90
45012;DHT22;63444;48.148;11.542;2023-06-10T05:09:59;18.30;99.90
45012;DHT22;63444;48.148;11.542;2023-06-10T05:12:26;18.10;99.90
45012;DHT22;63444;48.148;11.542;2023-06-10T05:14:51;18.00;99.90
45012;DHT22;63444;48.148;11.542;2023-06-10T05:17:17;18.00;99.90
45012;DHT22;63444;48.148;11.542;2023-06-10T05:19:43;18.00;99.90
45012;DHT22;63444;48.148;11.542;2023-06-10T05:22:09;18.00;99.90
45012;DHT22;63444;48.148;11.542;2023-06-10T05:24:35;18.00;99.90
45012;DHT22;63444;48.148;11.542;2023-06-10T05:27:00;18.00;99.90
45012;DHT22;63444;48.148;11.542;2023-06-10T05:29:26;18.10;99.90
45012;DHT22;63444;48.148;11.542;2023-06-10T05:31:52;18.10;99.90
45012;DHT22;63444;48.148;11.542;2023-06-10T05:34:18;18.10;99.90
45012;DHT22;63444;48.148;11.542;2023-06-10T05:36:43;18.20;99.90
45012;DHT22;63444;48.148;11.542;2023-06-10T05:39:09;18.20;99.90
45012;DHT22;63444;48.148;11.542;2023-06-10T05:41:35;18.20;99.90
45012;DHT22;63444;48.148;11.542;2023-06-10T05:44:01;18.30;99.90
45012;DHT22;63444;48.148;11.542;2023-06-10T05:46:26;18.30;99.90
45012;DHT22;63444;48.148;11.542;2023-06-10T05:48:52;18.40;99.90
45012;DHT22;63444;48.148;11.542;2023-06-10T05:51:18;18.40;99.90
45012;DHT22;63444;48.148;11.542;2023-06-10T05:53:43;18.50;99.90
45012;DHT22;63444;48.148;11.542;2023-06-10T05:56:12;18.50;99.90
45012;DHT22;63444;48.148;11.542;2023-06-10T05:58:38;18.60;99.90
45012;DHT22;63444;48.148;11.542;2023-06-10T06:01:03;18.80;99.90
45012;DHT22;63444;48.148;11.542;2023-06-10T06:03:29;18.90;99.90
45012;DHT22;63444;48.148;11.542;2023-06-10T06:05:55;19.00;99.90
45012;DHT22;63444;48.148;11.542;2023-06-10T06:08:20;19.10;99.90
45012;DHT22;63444;48.148;11.542;2023-06-10T06:10:46;19.30;99.90
45012;DHT22;63444;48.148;11.542;2023-06-10T06:13:13;19.30;99.90
45012;DHT22;63444;48.148;11.542;2023-06-10T06:15:39;19.50;99.90
45012;DHT22;63444;48.148;11.542;2023-06-10T06:18:04;19.70;99.90
45012;DHT22;63444;48.148;11.542;2023-06-10T06:20:30;19.80;99.90
45012;DHT22;63444;48.148;11.542;2023-06-10T06:22:56;19.90;99.90
45012;DHT22;63444;48.148;11.542;2023-06-10T06:25:21;20.00;99.90
45012;DHT22;63444;48.148;11.542;2023-06-10T06:27:47;20.10;99.90
45012;DHT22;63444;48.148;11.542;2023-06-10T06:30:12;20.20;99.90
45012;DHT22;63444;48.148;11.542;2023-06-10T06:32:38;20.40;99.90
45012;DHT22;63444;48.148;11.542;2023-06-10T06:35:04;20.50;99.90
45012;DHT22;63444;48.148;11.542;2023-06-10T06:37:33;20.60;99.90
45012;DHT22;63444;48.148;11.542;2023-06-10T06:39:59;20.70;99.90
45012;DHT22;63444;48.148;11.542;2023-06-10T06:42:24;20.80;99.90
45012;DHT22;63444;48.148;11.542;2023-06-10T06:44:50;20.80;99.90
45012;DHT22;63444;48.148;11.542;2023-06-10T06:47:16;20.90;99.90
45012;DHT22;63444;48.148;11.542;2023-06-10T06:49:47;20.90;99.90
45012;DHT22;63444;48.148;11.542;2023-06-10T06:52:13;21.00;99.90
45012;DHT22;63444;48.148;11.542;2023-06-10T06:54:39;21.10;99.90
45012;DHT22;63444;48.148;11.542;2023-06-10T06:57:05;21.20;99.90
45012;DHT22;63444;48.148;11.542;2023-06-10T06:59:31;21.30;99.90
45012;DHT22;63444;48.148;11.542;2023-06-10T07:01:57;21.50;99.90
45012;DHT22;63444;48.148;11.542;2023-06-10T07:04:22;21.70;99.90
45012;DHT22;63444;48.148;11.542;2023-06-10T07:06:48;21.70;99.90
45012;DHT22;63444;48.148;11.542;2023-06-10T07:09:14;21.70;99.90
45012;DHT22;63444;48.148;11.542;2023-06-10T07:11:40;22.00;99.90
45012;DHT22;63444;48.148;11.542;2023-06-10T07:14:06;22.10;99.90
45012;DHT22;63444;48.148;11.542;2023-06-10T07:16:32;22.20;99.90
45012;DHT22;63444;48.148;11.542;2023-06-10T07:18:58;22.40;99.90
45012;DHT22;63444;48.148;11.542;2023-06-10T07:21:24;22.40;99.90
45012;DHT22;63444;48.148;11.542;2023-06-10T07:23:49;22.50;99.70
45012;DHT22;63444;48.148;11.542;2023-06-10T07:26:19;22.60;99.20
45012;DHT22;63444;48.148;11.542;2023-06-10T07:28:44;22.60;99.10
45012;DHT22;63444;48.148;11.542;2023-06-10T07:31:10;22.60;99.20
45012;DHT22;63444;48.148;11.542;2023-06-10T07:33:37;22.70;98.70
45012;DHT22;63444;48.148;11.542;2023-06-10T07:36:05;22.80;98.70
45012;DHT22;63444;48.148;11.542;2023-06-10T07:38:30;22.80;98.40
45012;DHT22;63444;48.148;11.542;2023-06-10T07:40:56;22.90;97.90
45012;DHT22;63444;48.148;11.542;2023-06-10T07:43:22;22.90;97.80
45012;DHT22;63444;48.148;11.542;2023-06-10T07:45:47;22.90;97.50
45012;DHT22;63444;48.148;11.542;2023-06-10T07:48:13;22.80;97.30
45012;DHT22;63444;48.148;11.542;2023-06-10T07:50:39;22.80;97.20
45012;DHT22;63444;48.148;11.542;2023-06-10T07:53:05;22.80;97.30
45012;DHT22;63444;48.148;11.542;2023-06-10T07:55:31;23.00;97.40
45012;DHT22;63444;48.148;11.542;2023-06-10T07:57:57;23.00;97.10
45012;DHT22;63444;48.148;11.542;2023-06-10T08:00:23;23.20;96.90
45012;DHT22;63444;48.148;11.542;2023-06-10T08:02:48;23.30;96.60
45012;DHT22;63444;48.148;11.542;2023-06-10T08:20:43;24.20;94.50
45012;DHT22;63444;48.148;11.542;2023-06-10T08:23:14;24.30;94.60
45012;DHT22;63444;48.148;11.542;2023-06-10T08:25:39;24.40;94.10
45012;DHT22;63444;48.148;11.542;2023-06-10T08:28:06;24.40;93.80
45012;DHT22;63444;48.148;11.542;2023-06-10T08:30:32;24.40;93.80
45012;DHT22;63444;48.148;11.542;2023-06-10T08:33:24;24.50;93.60
45012;DHT22;63444;48.148;11.542;2023-06-10T08:35:49;24.50;94.00
45012;DHT22;63444;48.148;11.542;2023-06-10T08:38:17;24.60;94.20
45012;DHT22;63444;48.148;11.542;2023-06-10T08:40:44;24.80;94.10
45012;DHT22;63444;48.148;11.542;2023-06-10T08:45:45;25.00;93.20
45012;DHT22;63444;48.148;11.542;2023-06-10T08:48:12;25.10;93.00
45012;DHT22;63444;48.148;11.542;2023-06-10T08:50:39;25.10;93.10
45012;DHT22;63444;48.148;11.542;2023-06-10T08:53:08;25.20;93.00
45012;DHT22;63444;48.148;11.542;2023-06-10T08:55:37;25.30;92.50
45012;DHT22;63444;48.148;11.542;2023-06-10T08:58:03;25.40;92.40
45012;DHT22;63444;48.148;11.542;2023-06-10T09:00:30;25.40;92.50
45012;DHT22;63444;48.148;11.542;2023-06-10T09:02:56;25.60;92.60
45012;DHT22;63444;48.148;11.542;2023-06-10T09:05:22;25.60;92.50
45012;DHT22;63444;48.148;11.542;2023-06-10T09:07:49;25.70;92.40
45012;DHT22;63444;48.148;11.542;2023-06-10T09:10:16;25.80;92.20
45012;DHT22;63444;48.148;11.542;2023-06-10T09:12:54;26.00;91.40
45012;DHT22;63444;48.148;11.542;2023-06-10T09:15:21;26.10;91.30
45012;DHT22;63444;48.148;11.542;2023-06-10T09:17:50;26.20;91.50
45012;DHT22;63444;48.148;11.542;2023-06-10T09:20:18;26.50;91.20
45012;DHT22;63444;48.148;11.542;2023-06-10T09:22:47;26.60;90.90
45012;DHT22;63444;48.148;11.542;2023-06-10T09:25:13;26.60;90.70
45012;DHT22;63444;48.148;11.542;2023-06-10T09:27:47;26.70;90.50
45012;DHT22;63444;48.148;11.542;2023-06-10T09:30:32;26.80;90.30
45012;DHT22;63444;48.148;11.542;2023-06-10T09:33:03;26.80;90.20
45012;DHT22;63444;48.148;11.542;2023-06-10T09:35:34;26.90;90.10
45012;DHT22;63444;48.148;11.542;2023-06-10T09:38:00;27.00;90.20
45012;DHT22;63444;48.148;11.542;2023-06-10T09:40:27;27.10;89.60
45012;DHT22;63444;48.148;11.542;2023-06-10T09:42:58;27.10;89.80
45012;DHT22;63444;48.148;11.542;2023-06-10T09:45:30;27.20;89.80
45012;DHT22;63444;48.148;11.542;2023-06-10T09:47:59;27.30;88.70
45012;DHT22;63444;48.148;11.542;2023-06-10T09:50:37;27.30;87.80
45012;DHT22;63444;48.148;11.542;2023-06-10T09:53:06;27.30;88.90
45012;DHT22;63444;48.148;11.542;2023-06-10T09:55:37;27.20;89.30
45012;DHT22;63444;48.148;11.542;2023-06-10T09:58:06;27.20;89.90
45012;DHT22;63444;48.148;11.542;2023-06-10T10:00:38;27.00;90.00
45012;DHT22;63444;48.148;11.542;2023-06-10T10:03:04;27.00;89.20
45012;DHT22;63444;48.148;11.542;2023-06-10T10:05:33;27.00;89.60
45012;DHT22;63444;48.148;11.542;2023-06-10T10:07:58;26.90;88.80
45012;DHT22;63444;48.148;11.542;2023-06-10T10:10:24;26.90;88.80
45012;DHT22;63444;48.148;11.542;2023-06-10T10:12:54;26.80;88.50
45012;DHT22;63444;48.148;11.542;2023-06-10T10:15:25;26.80;87.20
45012;DHT22;63444;48.148;11.542;2023-06-10T10:18:04;26.70;87.20
45012;DHT22;63444;48.148;11.542;2023-06-10T10:20:33;26.70;87.60
45012;DHT22;63444;48.148;11.542;2023-06-10T10:23:02;26.60;88.20
45012;DHT22;63444;48.148;11.542;2023-06-10T10:25:32;26.60;88.10
45012;DHT22;63444;48.148;11.542;2023-06-10T10:30:49;26.60;87.70
45012;DHT22;63444;48.148;11.542;2023-06-10T10:33:27;26.70;88.00
45012;DHT22;63444;48.148;11.542;2023-06-10T10:35:57;26.60;88.60
45012;DHT22;63444;48.148;11.542;2023-06-10T10:38:24;26.60;86.80
45012;DHT22;63444;48.148;11.542;2023-06-10T10:40:50;26.50;85.80
45012;DHT22;63444;48.148;11.542;2023-06-10T13:51:09;25.90;85.70
45012;DHT22;63444;48.148;11.542;2023-06-10T13:53:36;25.80;86.10
45012;DHT22;63444;48.148;11.542;2023-06-10T13:56:02;25.70;85.50
45012;DHT22;63444;48.148;11.542;2023-06-10T13:58:28;25.60;84.10
45012;DHT22;63444;48.148;11.542;2023-06-10T14:00:54;25.50;83.70
45012;DHT22;63444;48.148;11.542;2023-06-10T14:03:19;25.40;84.70
45012;DHT22;63444;48.148;11.542;2023-06-10T14:05:45;25.30;84.90
45012;DHT22;63444;48.148;11.542;2023-06-10T14:08:11;25.30;85.70
45012;DHT22;63444;48.148;11.542;2023-06-10T14:10:37;25.20;85.50
45012;DHT22;63444;48.148;11.542;2023-06-10T14:13:02;25.20;85.10
45012;DHT22;63444;48.148;11.542;2023-06-10T14:15:28;25.20;85.30
45012;DHT22;63444;48.148;11.542;2023-06-10T14:17:53;25.20;84.70
45012;DHT22;63444;48.148;11.542;2023-06-10T14:20:19;25.20;86.00
45012;DHT22;63444;48.148;11.542;2023-06-10T14:22:45;25.20;85.80
45012;DHT22;63444;48.148;11.542;2023-06-10T14:25:10;25.20;85.70
45012;DHT22;63444;48.148;11.542;2023-06-10T14:27:37;25.20;85.80
45012;DHT22;63444;48.148;11.542;2023-06-10T14:30:03;25.10;85.90
45012;DHT22;63444;48.148;11.542;2023-06-10T14:32:29;25.10;85.10
45012;DHT22;63444;48.148;11.542;2023-06-10T14:34:55;25.10;85.00
45012;DHT22;63444;48.148;11.542;2023-06-10T14:37:21;25.10;87.10
45012;DHT22;63444;48.148;11.542;2023-06-10T14:39:46;25.10;84.70
45012;DHT22;63444;48.148;11.542;2023-06-10T14:42:12;25.10;84.10
45012;DHT22;63444;48.148;11.542;2023-06-10T14:44:37;25.10;83.80
45012;DHT22;63444;48.148;11.542;2023-06-10T14:47:03;25.10;84.20
45012;DHT22;63444;48.148;11.542;2023-06-10T14:49:29;25.10;83.30
45012;DHT22;63444;48.148;11.542;2023-06-10T14:51:55;25.10;83.80
45012;DHT22;63444;48.148;11.542;2023-06-10T14:54:20;25.10;84.00
45012;DHT22;63444;48.148;11.542;2023-06-10T14:56:46;25.10;84.10
45012;DHT22;63444;48.148;11.542;2023-06-10T14:59:12;25.00;84.00
45012;DHT22;63444;48.148;11.542;2023-06-10T15:01:38;25.00;84.20
45012;DHT22;63444;48.148;11.542;2023-06-10T15:04:03;25.00;84.80
45012;DHT22;63444;48.148;11.542;2023-06-10T15:06:29;25.10;84.70
45012;DHT22;63444;48.148;11.542;2023-06-10T15:08:55;25.10;84.70
45012;DHT22;63444;48.148;11.542;2023-06-10T15:11:20;25.20;85.00
45012;DHT22;63444;48.148;11.542;2023-06-10T15:13:46;25.20;84.80
45012;DHT22;63444;48.148;11.542;2023-06-10T15:16:12;25.20;85.70
45012;DHT22;63444;48.148;11.542;2023-06-10T15:18:40;25.20;85.30
45012;DHT22;63444;48.148;11.542;2023-06-10T15:21:05;25.20;85.00
45012;DHT22;63444;48.148;11.542;2023-06-10T15:23:31;25.20;86.60
45012;DHT22;63444;48.148;11.542;2023-06-10T15:25:56;25.20;87.40
45012;DHT22;63444;48.148;11.542;2023-06-10T15:28:22;25.30;87.40
45012;DHT22;63444;48.148;11.542;2023-06-10T15:30:48;25.30;87.80
45012;DHT22;63444;48.148;11.542;2023-06-10T15:33:14;25.30;87.70
45012;DHT22;63444;48.148;11.542;2023-06-10T15:35:40;25.30;87.40
45012;DHT22;63444;48.148;11.542;2023-06-10T15:38:05;25.30;87.20
45012;DHT22;63444;48.148;11.542;2023-06-10T15:40:31;25.40;86.90
45012;DHT22;63444;48.148;11.542;2023-06-10T15:42:57;25.30;87.50
45012;DHT22;63444;48.148;11.542;2023-06-10T15:45:22;25.30;85.30
45012;DHT22;63444;48.148;11.542;2023-06-10T15:47:48;25.30;85.70
45012;DHT22;63444;48.148;11.542;2023-06-10T15:50:14;25.20;84.80
45012;DHT22;63444;48.148;11.542;2023-06-10T15:52:39;25.30;85.30
45012;DHT22;63444;48.148;11.542;2023-06-10T15:55:05;25.30;85.30
45012;DHT22;63444;48.148;11.542;2023-06-10T15:57:31;25.30;84.30
45012;DHT22;63444;48.148;11.542;2023-06-10T15:59:56;25.20;85.10
45012;DHT22;63444;48.148;11.542;2023-06-10T16:02:22;25.30;85.70
45012;DHT22;63444;48.148;11.542;2023-06-10T16:04:47;25.20;85.30
45012;DHT22;63444;48.148;11.542;2023-06-10T16:07:13;25.20;85.80
45012;DHT22;63444;48.148;11.542;2023-06-10T16:09:38;25.10;86.70
45012;DHT22;63444;48.148;11.542;2023-06-10T16:12:04;25.00;88.40
45012;DHT22;63444;48.148;11.542;2023-06-10T16:14:31;25.00;89.20
45012;DHT22;63444;48.148;11.542;2023-06-10T16:16:56;25.00;90.30
45012;DHT22;63444;48.148;11.542;2023-06-10T16:19:24;25.00;90.40
45012;DHT22;63444;48.148;11.542;2023-06-10T16:21:49;24.90;90.30
45012;DHT22;63444;48.148;11.542;2023-06-10T16:24:16;24.90;90.70
45012;DHT22;63444;48.148;11.542;2023-06-10T16:26:42;24.80;90.50
45012;DHT22;63444;48.148;11.542;2023-06-10T16:29:07;24.80;90.70
45012;DHT22;63444;48.148;11.542;2023-06-10T16:31:34;24.70;90.70
45012;DHT22;63444;48.148;11.542;2023-06-10T16:33:59;24.60;90.60
45012;DHT22;63444;48.148;11.542;2023-06-10T16:36:25;24.60;90.50
45012;DHT22;63444;48.148;11.542;2023-06-10T16:38:50;24.60;90.30
45012;DHT22;63444;48.148;11.542;2023-06-10T16:41:16;24.60;90.30
45012;DHT22;63444;48.148;11.542;2023-06-10T16:43:41;24.60;89.80
45012;DHT22;63444;48.148;11.542;2023-06-10T16:46:07;24.60;90.00
45012;DHT22;63444;48.148;11.542;2023-06-10T16:48:32;24.50;89.70
45012;DHT22;63444;48.148;11.542;2023-06-10T16:50:58;24.50;89.70
45012;DHT22;63444;48.148;11.542;2023-06-10T16:53:24;24.50;89.90
45012;DHT22;63444;48.148;11.542;2023-06-10T16:55:49;24.50;89.60
45012;DHT22;63444;48.148;11.542;2023-06-10T16:58:15;24.50;89.50
45012;DHT22;63444;48.148;11.542;2023-06-10T17:00:40;24.40;90.00
45012;DHT22;63444;48.148;11.542;2023-06-10T17:03:11;24.30;89.80
45012;DHT22;63444;48.148;11.542;2023-06-10T17:05:36;24.30;89.70
45012;DHT22;63444;48.148;11.542;2023-06-10T17:08:02;24.20;89.60
45012;DHT22;63444;48.148;11.542;2023-06-10T17:10:28;24.30;90.00
45012;DHT22;63444;48.148;11.542;2023-06-10T17:12:53;24.20;90.30
45012;DHT22;63444;48.148;11.542;2023-06-10T17:15:19;24.20;90.40
45012;DHT22;63444;48.148;11.542;2023-06-10T17:17:44;24.20;90.70
45012;DHT22;63444;48.148;11.542;2023-06-10T17:20:10;24.30;90.90
45012;DHT22;63444;48.148;11.542;2023-06-10T17:22:36;24.20;91.10
45012;DHT22;63444;48.148;11.542;2023-06-10T17:25:02;24.20;91.40
45012;DHT22;63444;48.148;11.542;2023-06-10T17:27:27;24.10;91.20
45012;DHT22;63444;48.148;11.542;2023-06-10T17:29:53;24.20;91.00
45012;DHT22;63444;48.148;11.542;2023-06-10T17:32:18;24.00;91.20
45012;DHT22;63444;48.148;11.542;2023-06-10T17:34:44;24.00;91.50
45012;DHT22;63444;48.148;11.542;2023-06-10T17:37:09;23.80;91.90
45012;DHT22;63444;48.148;11.542;2023-06-10T17:39:35;23.80;92.00
45012;DHT22;63444;48.148;11.542;2023-06-10T17:42:01;23.70;92.20
45012;DHT22;63444;48.148;11.542;2023-06-10T17:44:26;23.80;92.40
45012;DHT22;63444;48.148;11.542;2023-06-10T17:46:53;23.70;92.40
45012;DHT22;63444;48.148;11.542;2023-06-10T17:49:22;23.70;92.40
45012;DHT22;63444;48.148;11.542;2023-06-10T17:51:49;23.60;92.40
45012;DHT22;63444;48.148;11.542;2023-06-10T17:54:16;23.60;92.70
45012;DHT22;63444;48.148;11.542;2023-06-10T17:56:41;23.50;92.80
45012;DHT22;63444;48.148;11.542;2023-06-10T17:59:07;23.40;93.00
45012;DHT22;63444;48.148;11.542;2023-06-10T18:01:32;23.30;93.50
45012;DHT22;63444;48.148;11.542;2023-06-10T18:04:02;23.20;93.40
45012;DHT22;63444;48.148;11.542;2023-06-10T18:06:28;23.20;93.80
45012;DHT22;63444;48.148;11.542;2023-06-10T18:08:53;23.10;93.90
45012;DHT22;63444;48.148;11.542;2023-06-10T18:11:19;23.00;94.10
45012;DHT22;63444;48.148;11.542;2023-06-10T18:13:45;23.00;94.30
45012;DHT22;63444;48.148;11.542;2023-06-10T18:16:11;22.90;94.40
45012;DHT22;63444;48.148;11.542;2023-06-10T18:18:36;22.90;94.60
45012;DHT22;63444;48.148;11.542;2023-06-10T18:21:02;22.80;94.70
45012;DHT22;63444;48.148;11.542;2023-06-10T18:23:28;22.70;94.90
45012;DHT22;63444;48.148;11.542;2023-06-10T18:25:54;22.70;95.10
45012;DHT22;63444;48.148;11.542;2023-06-10T18:28:19;22.60;95.30
45012;DHT22;63444;48.148;11.542;2023-06-10T18:30:45;22.60;95.40
45012;DHT22;63444;48.148;11.542;2023-06-10T18:33:10;22.50;95.60
45012;DHT22;63444;48.148;11.542;2023-06-10T18:35:36;22.50;95.60
45012;DHT22;63444;48.148;11.542;2023-06-10T18:38:04;22.50;95.80
45012;DHT22;63444;48.148;11.542;2023-06-10T18:40:30;22.50;94.80
45012;DHT22;63444;48.148;11.542;2023-06-10T18:42:55;22.50;94.70
45012;DHT22;63444;48.148;11.542;2023-06-10T18:45:21;22.50;94.70